Portada
METAR-TAF:

METAR-TAF

Aeroports :

Base Aèria de Morón

Morón de la Frontera, Espanya

latitud: 37-09N, longitud: 005-37W, altitud: 87 m

Observació

L'informe es va fer fa 1 hora i 9 minuts, a les 12:00 UTC
Vent 11 kt del Sud
Temperatura 17°C
Humitat 63%
Pressió 1024 hPa
Visibilitat 10 km o més
Cel ennuvolat a una alçada de 4500 ft

METAR: LEMO 111200Z 19011KT 9999 BKN045 17/10 Q1024 NOSIG

Hora: 14:09 (13:09 UTC)

Pronòstic

L'informe es va fer fa 2 hores i 9 minuts, a les 11:00 UTC
Pronòstic vàlid del 11 a les 12 UTC al 11 a les 21 UTC
Vent 8 kt del Sud-Oest
Visibilitat 10 km o més
Núvols disperses a una alçada de 3000 ft

TAF: LEMO 111100Z 1112/1121 22008KT 9999 SCT030

Observacions i pronòstics meteorològics de més de 4000 aeroports (METAR i TAF).

Les estacions disponibles són els punts grocs i vermells al mapa.

Posi el ratolí al punt desitjat per veure el nom de l'estació.

Feu clic per veure les observacions i els pronòstics meteorològics.

Per canviar el mapa: feu clic els botons verds amb una creu de color negre per apropar; al botó verd amb un guió per allunyar la imatge; o en les fletxes verdes per a mapes adjacents.


METAR-TAF: